createdAt,value
2019-01-23T00:01:31.928Z,14.83
2019-01-23T00:06:17.753Z,10.53
2019-01-23T00:11:03.437Z,11.80
2019-01-23T00:15:49.429Z,11.30
2019-01-23T00:20:35.207Z,10.10
2019-01-23T00:25:21.287Z,9.63
2019-01-23T00:30:07.663Z,9.07
2019-01-23T00:34:53.419Z,9.87
2019-01-23T00:39:39.171Z,10.80
2019-01-23T00:44:25.110Z,9.93
2019-01-23T00:49:10.846Z,9.07
2019-01-23T00:53:56.739Z,9.03
2019-01-23T00:58:48.948Z,8.77
2019-01-23T01:03:29.964Z,9.10
2019-01-23T01:08:15.661Z,8.80
2019-01-23T01:13:01.392Z,8.67
2019-01-23T01:17:47.259Z,7.40
2019-01-23T01:22:33.271Z,9.83
2019-01-23T01:27:19.080Z,8.47
2019-01-23T01:32:04.953Z,7.50
2019-01-23T01:36:50.842Z,8.10
2019-01-23T01:41:36.662Z,7.70
2019-01-23T01:46:22.780Z,7.83
2019-01-23T01:51:08.556Z,7.30
2019-01-23T01:55:54.323Z,6.87
2019-01-23T02:00:40.137Z,7.80
2019-01-23T02:05:25.880Z,8.23
2019-01-23T02:10:13.717Z,8.13
2019-01-23T02:14:59.459Z,7.10
2019-01-23T02:19:45.241Z,6.87
2019-01-23T02:24:30.989Z,6.83
2019-01-23T02:29:16.830Z,7.07
2019-01-23T02:34:02.564Z,7.10
2019-01-23T02:38:48.265Z,7.63
2019-01-23T02:43:33.985Z,10.30
2019-01-23T02:48:19.725Z,12.33
2019-01-23T02:53:05.441Z,12.67
2019-01-23T02:57:51.303Z,11.93
2019-01-23T03:02:37.206Z,12.50
2019-01-23T03:07:22.938Z,14.30
2019-01-23T03:12:08.819Z,14.40
2019-01-23T03:16:54.565Z,12.93
2019-01-23T03:21:40.294Z,13.17
2019-01-23T03:26:26.032Z,14.30
2019-01-23T03:31:11.801Z,14.77
2019-01-23T03:35:57.618Z,13.70
2019-01-23T03:40:43.351Z,13.77
2019-01-23T03:45:29.115Z,12.53
2019-01-23T03:50:16.462Z,11.60
2019-01-23T03:55:02.441Z,12.37
2019-01-23T03:59:48.184Z,12.73
2019-01-23T04:04:33.946Z,11.67
2019-01-23T04:09:19.993Z,11.63
2019-01-23T04:14:06.095Z,12.43
2019-01-23T04:18:51.796Z,12.63
2019-01-23T04:23:37.586Z,12.67
2019-01-23T04:28:23.263Z,12.03
2019-01-23T04:33:09.391Z,12.00
2019-01-23T04:37:55.130Z,12.47
2019-01-23T04:42:40.823Z,13.37
2019-01-23T04:47:26.539Z,11.67
2019-01-23T04:52:36.115Z,9.70
2019-01-23T04:57:21.807Z,9.03
2019-01-23T05:02:07.691Z,9.83
2019-01-23T05:06:53.369Z,9.77
2019-01-23T05:11:39.152Z,10.17
2019-01-23T05:16:24.957Z,10.90
2019-01-23T05:21:10.820Z,12.00
2019-01-23T05:25:56.645Z,11.00
2019-01-23T05:30:42.615Z,10.67
2019-01-23T05:35:28.370Z,9.60
2019-01-23T05:40:14.296Z,12.13
2019-01-23T05:45:00.218Z,12.33
2019-01-23T05:49:46.027Z,10.47
2019-01-23T05:54:31.976Z,10.23
2019-01-23T05:59:17.890Z,9.67
2019-01-23T06:04:03.754Z,11.67
2019-01-23T06:08:49.922Z,11.40
2019-01-23T06:13:35.670Z,11.80
2019-01-23T06:18:21.377Z,11.43
2019-01-23T06:23:07.323Z,11.73
2019-01-23T06:27:53.158Z,11.70
2019-01-23T06:32:39.458Z,12.13
2019-01-23T06:37:25.241Z,13.33
2019-01-23T06:42:11.005Z,14.40
2019-01-23T06:46:56.814Z,12.67
2019-01-23T06:51:42.582Z,13.10
2019-01-23T06:56:28.353Z,12.80
2019-01-23T07:01:14.268Z,14.67
2019-01-23T07:06:00.153Z,15.73
2019-01-23T07:10:45.950Z,15.33
2019-01-23T07:15:31.756Z,15.97
2019-01-23T07:20:20.262Z,13.03
2019-01-23T07:25:07.020Z,13.33
2019-01-23T07:29:52.794Z,12.80
2019-01-23T07:34:38.480Z,11.53
2019-01-23T07:39:24.346Z,11.20
2019-01-23T07:44:12.519Z,12.40
2019-01-23T07:48:57.504Z,11.57
2019-01-23T07:53:43.420Z,10.53
2019-01-23T07:58:29.192Z,9.83
2019-01-23T08:03:15.250Z,10.20
2019-01-23T08:08:01.184Z,10.43
2019-01-23T08:12:47.333Z,10.20
2019-01-23T08:17:33.256Z,9.77
2019-01-23T08:22:19.054Z,10.63
2019-01-23T08:27:07.117Z,9.83
2019-01-23T08:31:52.756Z,10.50
2019-01-23T08:36:38.522Z,10.37
2019-01-23T08:41:24.292Z,10.13
2019-01-23T08:46:10.035Z,10.77
2019-01-23T08:50:55.921Z,12.00
2019-01-23T08:55:41.768Z,12.57
2019-01-23T09:00:27.606Z,13.10
2019-01-23T09:05:13.787Z,14.60
2019-01-23T09:09:59.766Z,16.13
2019-01-23T09:14:45.742Z,15.47
2019-01-23T09:19:31.537Z,16.57
2019-01-23T09:24:17.616Z,17.27
2019-01-23T09:29:03.634Z,17.27
2019-01-23T09:34:09.810Z,16.53
2019-01-23T09:39:36.789Z,15.67
2019-01-23T09:45:06.499Z,14.33
2019-01-23T09:50:23.911Z,14.73
2019-01-23T09:55:11.626Z,14.00
2019-01-23T09:59:57.570Z,13.07
2019-01-23T10:04:43.346Z,14.90
2019-01-23T10:09:30.771Z,13.10
2019-01-23T10:14:17.367Z,14.07
2019-01-23T10:19:03.322Z,12.93
2019-01-23T10:23:49.479Z,14.30
2019-01-23T10:28:35.436Z,20.63
2019-01-23T10:33:21.324Z,16.67
2019-01-23T10:38:07.233Z,14.17
2019-01-23T10:42:53.123Z,17.27
2019-01-23T10:47:39.202Z,19.60
2019-01-23T10:52:24.937Z,14.50
2019-01-23T10:57:11.118Z,13.40
2019-01-23T11:13:02.532Z,16.70
2019-01-23T11:17:48.620Z,14.33
2019-01-23T11:22:34.576Z,15.27
2019-01-23T11:27:20.514Z,14.90
2019-01-23T11:32:06.839Z,13.47
2019-01-23T11:36:52.647Z,13.83
2019-01-23T11:41:38.771Z,11.83
2019-01-23T11:46:25.986Z,6.73
2019-01-23T11:51:14.326Z,6.40
2019-01-23T11:56:03.852Z,7.23
2019-01-23T12:00:49.840Z,7.33
2019-01-23T12:05:36.167Z,8.97
2019-01-23T12:10:24.066Z,8.30
2019-01-23T12:15:11.961Z,6.23
2019-01-23T12:19:58.102Z,7.93
2019-01-23T12:24:44.223Z,8.27
2019-01-23T12:29:30.414Z,8.07
2019-01-23T12:34:16.536Z,9.13
2019-01-23T12:39:02.605Z,8.60
2019-01-23T12:43:48.411Z,10.17
2019-01-23T12:48:34.925Z,9.00
2019-01-23T12:53:20.870Z,10.70
2019-01-23T12:58:06.935Z,9.87
2019-01-23T13:02:52.894Z,11.20
2019-01-23T13:07:38.819Z,12.23
2019-01-23T13:12:24.689Z,11.67
2019-01-23T13:17:10.547Z,11.33
2019-01-23T13:21:56.256Z,12.13
2019-01-23T13:26:42.122Z,11.97
2019-01-23T13:31:28.053Z,11.87
2019-01-23T13:36:14.018Z,13.97
2019-01-23T13:40:59.890Z,12.23
2019-01-23T13:45:45.709Z,12.33
2019-01-23T13:50:31.791Z,10.57
2019-01-23T13:55:19.143Z,10.90
2019-01-23T14:00:07.025Z,11.10
2019-01-23T14:04:52.808Z,10.43
2019-01-23T14:09:38.707Z,10.43
2019-01-23T14:14:24.477Z,10.67
2019-01-23T14:19:10.532Z,10.63
2019-01-23T14:23:56.429Z,10.57
2019-01-23T14:28:42.268Z,11.37
2019-01-23T14:33:28.153Z,12.00
2019-01-23T14:38:14.050Z,11.10
2019-01-23T14:42:59.931Z,11.87
2019-01-23T14:47:45.834Z,13.20
2019-01-23T14:52:31.820Z,13.37
2019-01-23T14:57:17.820Z,15.00
2019-01-23T15:02:09.963Z,16.33
2019-01-23T15:06:51.293Z,14.70
2019-01-23T15:11:37.184Z,15.03
2019-01-23T15:16:23.080Z,14.93
2019-01-23T15:21:08.920Z,15.33
2019-01-23T15:25:55.201Z,16.17
2019-01-23T15:30:40.951Z,18.07
2019-01-23T15:35:26.925Z,17.77
2019-01-23T15:40:15.874Z,16.43
2019-01-23T15:45:01.694Z,14.67
2019-01-23T15:49:47.526Z,15.57
2019-01-23T15:54:33.370Z,15.70
2019-01-23T15:59:19.443Z,16.47
2019-01-23T16:04:05.611Z,16.17
2019-01-23T16:08:51.662Z,16.20
2019-01-23T16:13:42.213Z,16.30
2019-01-23T16:18:25.027Z,15.93
2019-01-23T16:23:11.060Z,15.40
2019-01-23T16:27:57.234Z,18.43
2019-01-23T16:32:43.326Z,17.03
2019-01-23T16:37:29.354Z,15.23
2019-01-23T16:42:15.296Z,16.17
2019-01-23T16:47:01.277Z,18.50
2019-01-23T16:51:51.290Z,17.20
2019-01-23T16:56:34.923Z,17.47
2019-01-23T17:01:21.021Z,20.77
2019-01-23T17:06:07.479Z,19.63
2019-01-23T17:10:53.528Z,19.53
2019-01-23T17:15:39.664Z,19.33
2019-01-23T17:20:34.556Z,21.47
2019-01-23T17:25:21.142Z,20.00
2019-01-23T17:30:10.171Z,20.80
2019-01-23T17:34:56.671Z,21.00
2019-01-23T17:39:43.032Z,21.83
2019-01-23T17:44:29.124Z,21.33
2019-01-23T17:49:15.035Z,22.80
2019-01-23T17:54:00.995Z,26.30
2019-01-23T17:58:47.123Z,25.00
2019-01-23T18:03:32.904Z,25.63
2019-01-23T18:08:18.818Z,25.37
2019-01-23T18:13:05.300Z,25.50
2019-01-23T18:17:51.397Z,25.87
2019-01-23T18:22:39.872Z,23.57
2019-01-23T18:27:26.177Z,22.87
2019-01-23T18:32:13.100Z,25.10
2019-01-23T18:37:28.457Z,23.17
2019-01-23T18:42:45.179Z,23.67
2019-01-23T18:48:25.074Z,24.03
2019-01-23T18:53:11.448Z,24.00
2019-01-23T18:57:57.602Z,22.60
2019-01-23T19:02:43.877Z,24.50
2019-01-23T19:07:30.094Z,24.13
2019-01-23T19:12:16.648Z,23.33
2019-01-23T19:17:03.140Z,24.20
2019-01-23T19:21:55.024Z,23.60
2019-01-23T19:26:41.528Z,23.73
2019-01-23T19:31:31.519Z,25.57
2019-01-23T19:36:18.437Z,24.80
2019-01-23T19:41:20.498Z,25.10
2019-01-23T19:46:15.906Z,23.50
2019-01-23T19:51:12.078Z,24.57
2019-01-23T19:55:58.383Z,23.20
2019-01-23T20:00:44.678Z,23.53
2019-01-23T20:05:32.659Z,25.07
2019-01-23T20:10:20.471Z,23.87
2019-01-23T20:15:07.998Z,25.10
2019-01-23T20:19:54.404Z,24.30
2019-01-23T20:24:40.478Z,25.03
2019-01-23T20:29:26.776Z,24.37
2019-01-23T20:34:12.920Z,24.43
2019-01-23T20:38:59.299Z,24.70
2019-01-23T20:43:45.611Z,24.30
2019-01-23T20:48:31.729Z,24.63
2019-01-23T20:53:18.165Z,25.30
2019-01-23T20:58:10.151Z,24.37
2019-01-23T21:02:56.140Z,24.63
2019-01-23T21:07:42.319Z,22.57
2019-01-23T21:12:28.313Z,25.43
2019-01-23T21:17:14.354Z,23.57
2019-01-23T21:22:00.157Z,25.10
2019-01-23T21:26:46.086Z,24.60
2019-01-23T21:31:32.293Z,25.63
2019-01-23T21:36:18.285Z,24.33
2019-01-23T21:41:04.728Z,24.50
2019-01-23T21:45:50.559Z,23.87
2019-01-23T21:50:36.536Z,24.93
2019-01-23T21:55:23.744Z,23.70
2019-01-23T22:00:18.353Z,24.43
2019-01-23T22:05:04.754Z,24.33
2019-01-23T22:09:50.781Z,22.77
2019-01-23T22:14:36.545Z,25.33
2019-01-23T22:19:22.600Z,23.63
2019-01-23T22:24:08.416Z,25.73
2019-01-23T22:28:54.298Z,23.73
2019-01-23T22:33:40.069Z,24.17
2019-01-23T22:38:25.928Z,24.43
2019-01-23T22:43:15.141Z,24.57
2019-01-23T22:47:59.313Z,25.10
2019-01-23T22:52:45.713Z,24.70
2019-01-23T22:57:31.526Z,24.60
2019-01-23T23:02:17.502Z,25.80
2019-01-23T23:07:03.511Z,25.17
2019-01-23T23:11:49.424Z,24.97
2019-01-23T23:16:35.158Z,25.27
2019-01-23T23:21:20.995Z,24.07
2019-01-23T23:26:06.964Z,26.33
2019-01-23T23:30:52.892Z,24.10
2019-01-23T23:35:38.863Z,24.40
2019-01-23T23:40:24.853Z,23.50
2019-01-23T23:45:11.929Z,24.80
2019-01-23T23:49:57.729Z,24.43
2019-01-23T23:54:43.601Z,25.47
2019-01-23T23:59:29.356Z,26.60
